createdAt,value
2018-12-05T14:15:24.875Z,2.58
2018-12-05T14:20:36.583Z,2.20
2018-12-05T14:25:47.889Z,2.27
2018-12-05T14:31:02.530Z,2.15
2018-12-05T14:37:01.238Z,2.20
2018-12-05T14:47:28.853Z,2.50
2018-12-05T14:52:41.187Z,2.00
2018-12-05T14:57:52.218Z,2.30
2018-12-05T15:03:06.859Z,2.22
2018-12-05T15:08:20.615Z,1.77
2018-12-05T15:13:31.759Z,1.80
2018-12-05T15:18:45.703Z,1.63
2018-12-05T15:23:57.615Z,1.50
2018-12-05T15:29:11.687Z,1.53
2018-12-05T15:39:36.798Z,1.75
2018-12-05T15:44:47.850Z,1.70
2018-12-05T15:50:03.281Z,1.90
2018-12-05T16:00:28.230Z,2.25
2018-12-05T16:05:55.777Z,2.15
2018-12-05T16:11:16.399Z,2.30
2018-12-05T16:16:27.690Z,1.85
2018-12-05T16:21:38.726Z,2.00
2018-12-05T16:26:50.221Z,2.50
2018-12-05T16:32:02.816Z,2.10
2018-12-05T17:43:31.100Z,4.08
2018-12-05T17:48:42.826Z,4.30
2018-12-05T17:53:57.552Z,3.55
2018-12-05T17:59:10.605Z,4.33
2018-12-05T18:07:33.904Z,3.98
2018-12-05T18:12:51.315Z,3.92
2018-12-05T18:18:02.788Z,4.00
2018-12-05T18:23:36.483Z,4.10
2018-12-05T18:28:47.811Z,3.70
2018-12-05T18:34:15.776Z,4.20
2018-12-05T18:39:26.911Z,3.65
2018-12-05T18:44:41.657Z,3.65
2018-12-05T18:49:59.272Z,3.30
2018-12-05T18:55:10.550Z,3.42
2018-12-05T19:00:23.548Z,3.60
2018-12-05T19:05:34.674Z,3.20
2018-12-05T19:10:59.901Z,3.65
2018-12-05T19:16:16.987Z,3.35
2018-12-05T19:22:01.594Z,3.27
2018-12-05T19:27:12.309Z,3.40
2018-12-05T19:32:26.886Z,3.20
2018-12-05T19:37:37.887Z,3.45
2018-12-05T19:42:49.878Z,3.70
2018-12-05T19:48:00.906Z,3.10
2018-12-05T19:53:19.617Z,3.08
2018-12-05T19:58:30.975Z,3.40
2018-12-05T20:06:45.542Z,2.90
2018-12-05T20:12:29.224Z,3.17
2018-12-05T20:17:40.552Z,3.15
2018-12-05T20:22:51.728Z,3.17
2018-12-05T20:28:03.073Z,3.30
2018-12-05T20:33:14.509Z,3.40
2018-12-05T20:38:25.902Z,2.75
2018-12-05T20:44:00.694Z,3.00
2018-12-05T20:49:11.567Z,3.17
2018-12-05T20:54:55.802Z,3.42
2018-12-05T21:02:35.660Z,3.87
2018-12-05T21:07:47.573Z,3.67
2018-12-05T21:13:04.625Z,3.95
2018-12-05T21:23:25.906Z,3.55
2018-12-05T21:28:36.984Z,3.65
2018-12-05T21:34:01.592Z,3.83
2018-12-05T21:39:14.311Z,4.05
2018-12-05T21:44:55.328Z,3.40
2018-12-05T21:50:07.402Z,3.62
2018-12-05T21:55:17.712Z,3.50
2018-12-05T22:00:28.617Z,3.65
2018-12-05T22:05:39.569Z,3.35
2018-12-05T22:10:57.454Z,3.58
2018-12-05T22:16:08.538Z,3.65
2018-12-05T22:18:39.624Z,3.30
2018-12-05T22:24:15.880Z,3.22
2018-12-05T22:29:26.638Z,3.42
2018-12-05T22:37:48.905Z,3.40
2018-12-05T22:43:03.557Z,3.17
2018-12-05T22:48:15.722Z,3.05
2018-12-05T22:53:32.612Z,3.30
2018-12-05T23:02:37.221Z,3.30
2018-12-05T23:07:48.985Z,3.27
2018-12-05T23:12:59.577Z,3.37
2018-12-05T23:18:10.627Z,3.30
2018-12-05T23:23:21.639Z,3.27
2018-12-05T23:28:32.710Z,3.30
2018-12-05T23:33:43.756Z,3.10
2018-12-05T23:38:54.580Z,3.30
2018-12-05T23:47:17.618Z,3.40
2018-12-05T23:52:28.591Z,3.22
2018-12-05T23:57:39.793Z,2.83
